sensor_id;sensor_type;location;lat;lon;timestamp;P1;durP1;ratioP1;P2;durP2;ratioP2
72117;SDS011;59992;47.490;8.736;2022-07-23T00:00:54;11.50;;;6.50;;
72117;SDS011;59992;47.490;8.736;2022-07-23T00:03:45;9.10;;;6.00;;
72117;SDS011;59992;47.490;8.736;2022-07-23T00:06:35;10.20;;;6.20;;
72117;SDS011;59992;47.490;8.736;2022-07-23T00:09:26;10.30;;;7.60;;
72117;SDS011;59992;47.490;8.736;2022-07-23T00:12:18;10.00;;;7.30;;
72117;SDS011;59992;47.490;8.736;2022-07-23T00:15:10;9.60;;;6.60;;
72117;SDS011;59992;47.490;8.736;2022-07-23T00:18:01;11.40;;;7.00;;
72117;SDS011;59992;47.490;8.736;2022-07-23T00:20:52;10.00;;;6.60;;
72117;SDS011;59992;47.490;8.736;2022-07-23T00:23:43;13.00;;;7.10;;
72117;SDS011;59992;47.490;8.736;2022-07-23T00:26:34;10.40;;;6.60;;
72117;SDS011;59992;47.490;8.736;2022-07-23T00:29:26;9.90;;;6.00;;
72117;SDS011;59992;47.490;8.736;2022-07-23T00:32:19;12.70;;;7.70;;
72117;SDS011;59992;47.490;8.736;2022-07-23T00:35:09;11.00;;;7.20;;
72117;SDS011;59992;47.490;8.736;2022-07-23T00:38:04;10.00;;;6.40;;
72117;SDS011;59992;47.490;8.736;2022-07-23T00:40:58;8.90;;;6.20;;
72117;SDS011;59992;47.490;8.736;2022-07-23T00:43:50;11.60;;;7.80;;
72117;SDS011;59992;47.490;8.736;2022-07-23T00:46:44;11.00;;;7.40;;
72117;SDS011;59992;47.490;8.736;2022-07-23T00:49:44;12.70;;;6.80;;
72117;SDS011;59992;47.490;8.736;2022-07-23T00:52:36;9.40;;;6.90;;
72117;SDS011;59992;47.490;8.736;2022-07-23T00:55:28;12.40;;;7.30;;
72117;SDS011;59992;47.490;8.736;2022-07-23T00:58:19;10.50;;;7.10;;
72117;SDS011;59992;47.490;8.736;2022-07-23T01:01:10;13.20;;;7.00;;
72117;SDS011;59992;47.490;8.736;2022-07-23T01:04:01;11.10;;;7.10;;
72117;SDS011;59992;47.490;8.736;2022-07-23T01:06:55;9.60;;;7.10;;
72117;SDS011;59992;47.490;8.736;2022-07-23T01:09:49;10.90;;;7.30;;
72117;SDS011;59992;47.490;8.736;2022-07-23T01:12:41;11.80;;;6.80;;
72117;SDS011;59992;47.490;8.736;2022-07-23T01:15:32;9.80;;;6.30;;
72117;SDS011;59992;47.490;8.736;2022-07-23T01:18:24;10.60;;;7.30;;
72117;SDS011;59992;47.490;8.736;2022-07-23T01:21:14;10.30;;;6.30;;
72117;SDS011;59992;47.490;8.736;2022-07-23T01:24:09;11.40;;;7.20;;
72117;SDS011;59992;47.490;8.736;2022-07-23T01:27:00;11.20;;;7.50;;
72117;SDS011;59992;47.490;8.736;2022-07-23T01:29:53;9.00;;;6.70;;
72117;SDS011;59992;47.490;8.736;2022-07-23T01:32:45;9.30;;;6.50;;
72117;SDS011;59992;47.490;8.736;2022-07-23T01:35:36;8.60;;;6.40;;
72117;SDS011;59992;47.490;8.736;2022-07-23T01:38:27;11.70;;;6.90;;
72117;SDS011;59992;47.490;8.736;2022-07-23T01:41:17;8.90;;;5.80;;
72117;SDS011;59992;47.490;8.736;2022-07-23T01:44:08;8.30;;;6.30;;
72117;SDS011;59992;47.490;8.736;2022-07-23T01:46:58;7.30;;;5.60;;
72117;SDS011;59992;47.490;8.736;2022-07-23T01:49:49;8.00;;;5.80;;
72117;SDS011;59992;47.490;8.736;2022-07-23T01:52:39;10.50;;;6.40;;
72117;SDS011;59992;47.490;8.736;2022-07-23T01:55:30;10.20;;;6.60;;
72117;SDS011;59992;47.490;8.736;2022-07-23T01:58:21;9.70;;;6.60;;
72117;SDS011;59992;47.490;8.736;2022-07-23T02:01:11;9.20;;;6.30;;
72117;SDS011;59992;47.490;8.736;2022-07-23T02:04:02;9.40;;;6.50;;
72117;SDS011;59992;47.490;8.736;2022-07-23T02:06:53;9.40;;;6.50;;
72117;SDS011;59992;47.490;8.736;2022-07-23T02:09:44;8.00;;;5.60;;
72117;SDS011;59992;47.490;8.736;2022-07-23T02:12:35;8.30;;;5.20;;
72117;SDS011;59992;47.490;8.736;2022-07-23T02:15:26;8.50;;;6.30;;
72117;SDS011;59992;47.490;8.736;2022-07-23T02:18:17;8.10;;;6.00;;
72117;SDS011;59992;47.490;8.736;2022-07-23T02:21:08;8.60;;;6.60;;
72117;SDS011;59992;47.490;8.736;2022-07-23T02:24:02;8.80;;;6.20;;
72117;SDS011;59992;47.490;8.736;2022-07-23T02:26:53;9.30;;;6.30;;
72117;SDS011;59992;47.490;8.736;2022-07-23T02:29:44;10.30;;;6.30;;
72117;SDS011;59992;47.490;8.736;2022-07-23T02:32:47;8.80;;;6.30;;
72117;SDS011;59992;47.490;8.736;2022-07-23T02:35:37;8.20;;;6.40;;
72117;SDS011;59992;47.490;8.736;2022-07-23T02:38:28;9.80;;;6.10;;
72117;SDS011;59992;47.490;8.736;2022-07-23T02:41:19;9.00;;;5.80;;
72117;SDS011;59992;47.490;8.736;2022-07-23T02:44:10;8.40;;;6.10;;
72117;SDS011;59992;47.490;8.736;2022-07-23T02:47:00;9.70;;;6.90;;
72117;SDS011;59992;47.490;8.736;2022-07-23T02:49:51;8.90;;;6.20;;
72117;SDS011;59992;47.490;8.736;2022-07-23T02:52:42;11.70;;;6.50;;
72117;SDS011;59992;47.490;8.736;2022-07-23T02:55:34;9.50;;;6.30;;
72117;SDS011;59992;47.490;8.736;2022-07-23T02:58:24;10.10;;;6.80;;
72117;SDS011;59992;47.490;8.736;2022-07-23T03:01:15;9.50;;;6.50;;
72117;SDS011;59992;47.490;8.736;2022-07-23T03:04:07;10.40;;;6.50;;
72117;SDS011;59992;47.490;8.736;2022-07-23T03:06:59;10.10;;;6.10;;
72117;SDS011;59992;47.490;8.736;2022-07-23T03:09:52;7.90;;;5.90;;
72117;SDS011;59992;47.490;8.736;2022-07-23T03:12:42;10.60;;;5.80;;
72117;SDS011;59992;47.490;8.736;2022-07-23T03:15:33;9.10;;;6.10;;
72117;SDS011;59992;47.490;8.736;2022-07-23T03:18:25;10.10;;;7.20;;
72117;SDS011;59992;47.490;8.736;2022-07-23T03:21:18;11.30;;;6.90;;
72117;SDS011;59992;47.490;8.736;2022-07-23T03:24:09;10.60;;;6.50;;
72117;SDS011;59992;47.490;8.736;2022-07-23T03:27:00;9.70;;;6.90;;
72117;SDS011;59992;47.490;8.736;2022-07-23T03:29:50;8.10;;;6.20;;
72117;SDS011;59992;47.490;8.736;2022-07-23T03:32:42;9.50;;;6.40;;
72117;SDS011;59992;47.490;8.736;2022-07-23T03:35:32;14.90;;;6.70;;
72117;SDS011;59992;47.490;8.736;2022-07-23T03:38:23;9.30;;;6.30;;
72117;SDS011;59992;47.490;8.736;2022-07-23T03:41:13;8.90;;;6.00;;
72117;SDS011;59992;47.490;8.736;2022-07-23T03:44:04;11.30;;;7.20;;
72117;SDS011;59992;47.490;8.736;2022-07-23T03:46:54;10.00;;;7.20;;
72117;SDS011;59992;47.490;8.736;2022-07-23T03:49:45;14.30;;;7.40;;
72117;SDS011;59992;47.490;8.736;2022-07-23T03:52:36;9.90;;;6.80;;
72117;SDS011;59992;47.490;8.736;2022-07-23T03:55:26;10.20;;;6.40;;
72117;SDS011;59992;47.490;8.736;2022-07-23T03:58:17;8.80;;;6.10;;
72117;SDS011;59992;47.490;8.736;2022-07-23T04:01:08;9.90;;;6.30;;
72117;SDS011;59992;47.490;8.736;2022-07-23T04:03:59;8.30;;;5.90;;
72117;SDS011;59992;47.490;8.736;2022-07-23T04:06:50;11.70;;;6.90;;
72117;SDS011;59992;47.490;8.736;2022-07-23T04:09:41;10.20;;;6.20;;
72117;SDS011;59992;47.490;8.736;2022-07-23T04:12:32;10.10;;;5.80;;
72117;SDS011;59992;47.490;8.736;2022-07-23T04:15:23;8.20;;;5.70;;
72117;SDS011;59992;47.490;8.736;2022-07-23T04:18:14;10.30;;;6.40;;
72117;SDS011;59992;47.490;8.736;2022-07-23T04:21:05;7.80;;;5.70;;
72117;SDS011;59992;47.490;8.736;2022-07-23T04:23:56;9.50;;;6.20;;
72117;SDS011;59992;47.490;8.736;2022-07-23T04:26:51;10.80;;;7.00;;
72117;SDS011;59992;47.490;8.736;2022-07-23T04:29:42;10.10;;;7.00;;
72117;SDS011;59992;47.490;8.736;2022-07-23T04:32:32;8.70;;;6.50;;
72117;SDS011;59992;47.490;8.736;2022-07-23T04:35:23;9.90;;;6.70;;
72117;SDS011;59992;47.490;8.736;2022-07-23T04:38:13;9.70;;;6.30;;
72117;SDS011;59992;47.490;8.736;2022-07-23T04:41:04;13.20;;;6.80;;
72117;SDS011;59992;47.490;8.736;2022-07-23T04:43:55;9.20;;;6.20;;
72117;SDS011;59992;47.490;8.736;2022-07-23T04:46:46;10.40;;;6.70;;
72117;SDS011;59992;47.490;8.736;2022-07-23T04:49:37;10.10;;;6.70;;
72117;SDS011;59992;47.490;8.736;2022-07-23T04:52:29;9.10;;;5.80;;
72117;SDS011;59992;47.490;8.736;2022-07-23T04:55:20;8.80;;;6.90;;
72117;SDS011;59992;47.490;8.736;2022-07-23T04:58:11;9.40;;;7.00;;
72117;SDS011;59992;47.490;8.736;2022-07-23T05:01:02;11.00;;;6.80;;
72117;SDS011;59992;47.490;8.736;2022-07-23T05:03:53;11.50;;;6.60;;
72117;SDS011;59992;47.490;8.736;2022-07-23T05:06:43;9.70;;;6.70;;
72117;SDS011;59992;47.490;8.736;2022-07-23T05:09:34;8.50;;;5.80;;
72117;SDS011;59992;47.490;8.736;2022-07-23T05:12:25;8.60;;;6.00;;
72117;SDS011;59992;47.490;8.736;2022-07-23T05:15:16;8.20;;;6.10;;
72117;SDS011;59992;47.490;8.736;2022-07-23T05:18:07;8.00;;;6.20;;
72117;SDS011;59992;47.490;8.736;2022-07-23T05:21:04;9.20;;;6.70;;
72117;SDS011;59992;47.490;8.736;2022-07-23T05:23:55;9.00;;;6.50;;
72117;SDS011;59992;47.490;8.736;2022-07-23T05:26:46;10.60;;;6.10;;
72117;SDS011;59992;47.490;8.736;2022-07-23T05:29:36;10.10;;;6.50;;
72117;SDS011;59992;47.490;8.736;2022-07-23T05:32:26;10.40;;;6.30;;
72117;SDS011;59992;47.490;8.736;2022-07-23T05:35:17;9.90;;;6.10;;
72117;SDS011;59992;47.490;8.736;2022-07-23T05:38:07;9.80;;;6.00;;
72117;SDS011;59992;47.490;8.736;2022-07-23T05:40:58;8.90;;;6.10;;
72117;SDS011;59992;47.490;8.736;2022-07-23T05:43:49;10.40;;;7.20;;
72117;SDS011;59992;47.490;8.736;2022-07-23T05:46:40;10.10;;;6.80;;
72117;SDS011;59992;47.490;8.736;2022-07-23T05:49:31;8.50;;;6.60;;
72117;SDS011;59992;47.490;8.736;2022-07-23T05:52:21;10.60;;;6.40;;
72117;SDS011;59992;47.490;8.736;2022-07-23T05:55:12;11.60;;;7.10;;
72117;SDS011;59992;47.490;8.736;2022-07-23T05:58:02;8.10;;;6.30;;
72117;SDS011;59992;47.490;8.736;2022-07-23T06:00:53;12.50;;;7.70;;
72117;SDS011;59992;47.490;8.736;2022-07-23T06:03:44;12.60;;;7.20;;
72117;SDS011;59992;47.490;8.736;2022-07-23T06:06:36;9.10;;;6.40;;
72117;SDS011;59992;47.490;8.736;2022-07-23T06:09:28;10.00;;;7.20;;
72117;SDS011;59992;47.490;8.736;2022-07-23T06:12:19;8.00;;;6.10;;
72117;SDS011;59992;47.490;8.736;2022-07-23T06:15:10;10.50;;;6.60;;
72117;SDS011;59992;47.490;8.736;2022-07-23T06:18:02;12.40;;;6.40;;
72117;SDS011;59992;47.490;8.736;2022-07-23T06:20:52;9.90;;;6.50;;
72117;SDS011;59992;47.490;8.736;2022-07-23T06:23:43;11.00;;;6.90;;
72117;SDS011;59992;47.490;8.736;2022-07-23T06:26:34;12.50;;;7.10;;
72117;SDS011;59992;47.490;8.736;2022-07-23T06:29:24;12.20;;;7.00;;
72117;SDS011;59992;47.490;8.736;2022-07-23T06:32:15;11.20;;;7.00;;
72117;SDS011;59992;47.490;8.736;2022-07-23T06:35:06;10.00;;;6.70;;
72117;SDS011;59992;47.490;8.736;2022-07-23T06:37:57;10.70;;;7.20;;
72117;SDS011;59992;47.490;8.736;2022-07-23T06:40:48;9.70;;;6.50;;
72117;SDS011;59992;47.490;8.736;2022-07-23T06:43:39;9.90;;;5.90;;
72117;SDS011;59992;47.490;8.736;2022-07-23T06:46:29;9.50;;;7.00;;
72117;SDS011;59992;47.490;8.736;2022-07-23T06:49:20;7.90;;;5.80;;
72117;SDS011;59992;47.490;8.736;2022-07-23T06:52:11;8.40;;;4.60;;
72117;SDS011;59992;47.490;8.736;2022-07-23T06:55:02;7.40;;;4.70;;
72117;SDS011;59992;47.490;8.736;2022-07-23T06:57:54;7.70;;;4.60;;
72117;SDS011;59992;47.490;8.736;2022-07-23T07:00:44;8.30;;;5.20;;
72117;SDS011;59992;47.490;8.736;2022-07-23T07:03:35;8.70;;;5.80;;
72117;SDS011;59992;47.490;8.736;2022-07-23T07:06:26;11.20;;;5.70;;
72117;SDS011;59992;47.490;8.736;2022-07-23T07:09:16;10.60;;;5.70;;
72117;SDS011;59992;47.490;8.736;2022-07-23T07:12:07;7.70;;;4.90;;
72117;SDS011;59992;47.490;8.736;2022-07-23T07:15:00;9.60;;;6.00;;
72117;SDS011;59992;47.490;8.736;2022-07-23T07:17:50;9.40;;;5.50;;
72117;SDS011;59992;47.490;8.736;2022-07-23T07:20:41;10.00;;;5.40;;
72117;SDS011;59992;47.490;8.736;2022-07-23T07:23:31;9.90;;;6.10;;
72117;SDS011;59992;47.490;8.736;2022-07-23T07:26:22;9.50;;;6.30;;
72117;SDS011;59992;47.490;8.736;2022-07-23T07:29:12;9.10;;;5.90;;
72117;SDS011;59992;47.490;8.736;2022-07-23T07:32:02;8.30;;;5.70;;
72117;SDS011;59992;47.490;8.736;2022-07-23T07:34:53;12.40;;;6.20;;
72117;SDS011;59992;47.490;8.736;2022-07-23T07:37:44;8.30;;;5.50;;
72117;SDS011;59992;47.490;8.736;2022-07-23T07:40:34;9.20;;;6.00;;
72117;SDS011;59992;47.490;8.736;2022-07-23T07:43:24;9.10;;;6.30;;
72117;SDS011;59992;47.490;8.736;2022-07-23T07:46:15;8.50;;;6.30;;
72117;SDS011;59992;47.490;8.736;2022-07-23T07:49:05;8.80;;;5.80;;
72117;SDS011;59992;47.490;8.736;2022-07-23T07:51:56;9.60;;;5.70;;
72117;SDS011;59992;47.490;8.736;2022-07-23T07:54:47;9.20;;;6.10;;
72117;SDS011;59992;47.490;8.736;2022-07-23T07:57:37;8.70;;;6.10;;
72117;SDS011;59992;47.490;8.736;2022-07-23T08:00:28;9.60;;;6.20;;
72117;SDS011;59992;47.490;8.736;2022-07-23T08:03:20;9.70;;;6.30;;
72117;SDS011;59992;47.490;8.736;2022-07-23T08:06:11;12.20;;;6.90;;
72117;SDS011;59992;47.490;8.736;2022-07-23T08:09:02;12.10;;;7.10;;
72117;SDS011;59992;47.490;8.736;2022-07-23T08:11:52;10.40;;;7.00;;
72117;SDS011;59992;47.490;8.736;2022-07-23T08:14:43;10.20;;;6.60;;
72117;SDS011;59992;47.490;8.736;2022-07-23T08:17:33;8.80;;;6.10;;
72117;SDS011;59992;47.490;8.736;2022-07-23T08:20:24;10.30;;;6.50;;
72117;SDS011;59992;47.490;8.736;2022-07-23T08:23:15;9.30;;;6.00;;
72117;SDS011;59992;47.490;8.736;2022-07-23T08:26:07;10.10;;;6.70;;
72117;SDS011;59992;47.490;8.736;2022-07-23T08:28:57;9.30;;;6.30;;
72117;SDS011;59992;47.490;8.736;2022-07-23T08:31:48;10.70;;;6.30;;
72117;SDS011;59992;47.490;8.736;2022-07-23T08:34:39;9.90;;;6.40;;
72117;SDS011;59992;47.490;8.736;2022-07-23T08:37:29;7.00;;;4.20;;
72117;SDS011;59992;47.490;8.736;2022-07-23T08:40:20;8.30;;;6.20;;
72117;SDS011;59992;47.490;8.736;2022-07-23T08:43:11;8.30;;;6.10;;
72117;SDS011;59992;47.490;8.736;2022-07-23T08:46:03;11.60;;;6.50;;
72117;SDS011;59992;47.490;8.736;2022-07-23T08:48:54;9.80;;;5.90;;
72117;SDS011;59992;47.490;8.736;2022-07-23T08:51:45;7.90;;;5.90;;
72117;SDS011;59992;47.490;8.736;2022-07-23T08:54:37;9.40;;;5.80;;
72117;SDS011;59992;47.490;8.736;2022-07-23T08:57:27;7.70;;;5.70;;
72117;SDS011;59992;47.490;8.736;2022-07-23T09:00:18;8.70;;;6.00;;
72117;SDS011;59992;47.490;8.736;2022-07-23T09:03:12;8.10;;;6.00;;
72117;SDS011;59992;47.490;8.736;2022-07-23T09:06:06;7.90;;;5.80;;
72117;SDS011;59992;47.490;8.736;2022-07-23T09:08:56;7.80;;;5.80;;
72117;SDS011;59992;47.490;8.736;2022-07-23T09:11:47;7.30;;;5.30;;
72117;SDS011;59992;47.490;8.736;2022-07-23T09:14:50;7.60;;;5.50;;
72117;SDS011;59992;47.490;8.736;2022-07-23T09:17:41;7.80;;;5.20;;
72117;SDS011;59992;47.490;8.736;2022-07-23T09:20:32;8.00;;;5.40;;
72117;SDS011;59992;47.490;8.736;2022-07-23T09:23:25;7.80;;;5.80;;
72117;SDS011;59992;47.490;8.736;2022-07-23T09:26:35;8.80;;;5.50;;
72117;SDS011;59992;47.490;8.736;2022-07-23T09:29:25;7.40;;;4.90;;
72117;SDS011;59992;47.490;8.736;2022-07-23T09:32:16;8.30;;;5.00;;
72117;SDS011;59992;47.490;8.736;2022-07-23T09:35:07;6.90;;;4.90;;
72117;SDS011;59992;47.490;8.736;2022-07-23T09:38:02;8.80;;;5.70;;
72117;SDS011;59992;47.490;8.736;2022-07-23T09:41:07;6.50;;;4.80;;
72117;SDS011;59992;47.490;8.736;2022-07-23T09:43:58;8.80;;;5.50;;
72117;SDS011;59992;47.490;8.736;2022-07-23T09:46:59;7.20;;;4.90;;
72117;SDS011;59992;47.490;8.736;2022-07-23T09:49:58;6.70;;;5.30;;
72117;SDS011;59992;47.490;8.736;2022-07-23T09:52:52;7.70;;;5.10;;
72117;SDS011;59992;47.490;8.736;2022-07-23T09:55:43;7.10;;;5.00;;
72117;SDS011;59992;47.490;8.736;2022-07-23T09:58:34;7.60;;;5.10;;
72117;SDS011;59992;47.490;8.736;2022-07-23T10:01:32;7.00;;;4.90;;
72117;SDS011;59992;47.490;8.736;2022-07-23T10:04:24;7.80;;;5.00;;
72117;SDS011;59992;47.490;8.736;2022-07-23T10:07:16;7.50;;;5.30;;
72117;SDS011;59992;47.490;8.736;2022-07-23T10:10:11;6.90;;;4.80;;
72117;SDS011;59992;47.490;8.736;2022-07-23T10:13:02;7.30;;;5.40;;
72117;SDS011;59992;47.490;8.736;2022-07-23T10:16:11;8.10;;;4.60;;
72117;SDS011;59992;47.490;8.736;2022-07-23T10:19:03;7.30;;;5.00;;
72117;SDS011;59992;47.490;8.736;2022-07-23T10:21:55;15.80;;;8.40;;
72117;SDS011;59992;47.490;8.736;2022-07-23T10:24:50;8.40;;;5.30;;
72117;SDS011;59992;47.490;8.736;2022-07-23T10:27:50;8.10;;;5.50;;
72117;SDS011;59992;47.490;8.736;2022-07-23T10:30:50;8.90;;;5.50;;
72117;SDS011;59992;47.490;8.736;2022-07-23T10:33:59;6.70;;;5.10;;
72117;SDS011;59992;47.490;8.736;2022-07-23T10:36:57;8.50;;;5.40;;
72117;SDS011;59992;47.490;8.736;2022-07-23T10:42:59;8.30;;;4.80;;
72117;SDS011;59992;47.490;8.736;2022-07-23T10:45:50;9.60;;;5.40;;
72117;SDS011;59992;47.490;8.736;2022-07-23T10:48:41;8.40;;;5.30;;
72117;SDS011;59992;47.490;8.736;2022-07-23T10:51:32;8.70;;;5.40;;
72117;SDS011;59992;47.490;8.736;2022-07-23T10:54:22;8.10;;;5.50;;
72117;SDS011;59992;47.490;8.736;2022-07-23T10:57:13;7.10;;;5.30;;
72117;SDS011;59992;47.490;8.736;2022-07-23T11:00:15;7.50;;;5.80;;
72117;SDS011;59992;47.490;8.736;2022-07-23T11:06:23;7.90;;;5.50;;
72117;SDS011;59992;47.490;8.736;2022-07-23T11:09:39;9.50;;;5.60;;
72117;SDS011;59992;47.490;8.736;2022-07-23T11:12:35;9.10;;;5.70;;
72117;SDS011;59992;47.490;8.736;2022-07-23T11:15:26;5.80;;;4.00;;
72117;SDS011;59992;47.490;8.736;2022-07-23T11:18:17;8.00;;;5.00;;
72117;SDS011;59992;47.490;8.736;2022-07-23T11:24:51;7.40;;;5.40;;
72117;SDS011;59992;47.490;8.736;2022-07-23T11:27:43;10.60;;;5.90;;
72117;SDS011;59992;47.490;8.736;2022-07-23T11:30:41;8.70;;;6.00;;
72117;SDS011;59992;47.490;8.736;2022-07-23T11:33:33;8.30;;;5.90;;
72117;SDS011;59992;47.490;8.736;2022-07-23T11:36:24;8.20;;;6.10;;
72117;SDS011;59992;47.490;8.736;2022-07-23T11:39:14;9.00;;;6.30;;
72117;SDS011;59992;47.490;8.736;2022-07-23T11:42:07;9.60;;;6.30;;
72117;SDS011;59992;47.490;8.736;2022-07-23T11:44:57;7.80;;;5.90;;
72117;SDS011;59992;47.490;8.736;2022-07-23T11:47:48;8.20;;;5.90;;
72117;SDS011;59992;47.490;8.736;2022-07-23T11:50:39;9.30;;;6.50;;
72117;SDS011;59992;47.490;8.736;2022-07-23T11:53:30;8.10;;;6.20;;
72117;SDS011;59992;47.490;8.736;2022-07-23T11:56:22;8.60;;;6.80;;
72117;SDS011;59992;47.490;8.736;2022-07-23T11:59:13;8.50;;;6.00;;
72117;SDS011;59992;47.490;8.736;2022-07-23T12:02:04;8.70;;;6.10;;
72117;SDS011;59992;47.490;8.736;2022-07-23T12:04:55;8.30;;;7.20;;
72117;SDS011;59992;47.490;8.736;2022-07-23T12:07:46;9.00;;;6.60;;
72117;SDS011;59992;47.490;8.736;2022-07-23T12:10:39;9.30;;;6.90;;
72117;SDS011;59992;47.490;8.736;2022-07-23T12:13:31;9.40;;;5.70;;
72117;SDS011;59992;47.490;8.736;2022-07-23T12:16:22;8.00;;;5.10;;
72117;SDS011;59992;47.490;8.736;2022-07-23T12:19:13;9.70;;;6.60;;
72117;SDS011;59992;47.490;8.736;2022-07-23T12:22:03;10.00;;;7.20;;
72117;SDS011;59992;47.490;8.736;2022-07-23T12:24:58;8.90;;;6.80;;
72117;SDS011;59992;47.490;8.736;2022-07-23T12:28:03;10.00;;;7.40;;
72117;SDS011;59992;47.490;8.736;2022-07-23T12:30:55;9.20;;;7.10;;
72117;SDS011;59992;47.490;8.736;2022-07-23T12:33:47;7.90;;;6.10;;
72117;SDS011;59992;47.490;8.736;2022-07-23T12:36:38;13.30;;;6.80;;
72117;SDS011;59992;47.490;8.736;2022-07-23T12:39:32;8.60;;;6.60;;
72117;SDS011;59992;47.490;8.736;2022-07-23T12:42:23;10.10;;;8.00;;
72117;SDS011;59992;47.490;8.736;2022-07-23T12:45:14;10.60;;;7.50;;
72117;SDS011;59992;47.490;8.736;2022-07-23T12:48:05;9.50;;;7.20;;
72117;SDS011;59992;47.490;8.736;2022-07-23T12:50:57;11.00;;;8.00;;
72117;SDS011;59992;47.490;8.736;2022-07-23T12:53:49;9.30;;;6.60;;
72117;SDS011;59992;47.490;8.736;2022-07-23T12:56:44;10.40;;;7.60;;
72117;SDS011;59992;47.490;8.736;2022-07-23T12:59:34;11.90;;;7.60;;
72117;SDS011;59992;47.490;8.736;2022-07-23T13:02:25;11.30;;;5.80;;
72117;SDS011;59992;47.490;8.736;2022-07-23T13:05:16;10.10;;;6.70;;
72117;SDS011;59992;47.490;8.736;2022-07-23T13:08:07;11.20;;;7.60;;
72117;SDS011;59992;47.490;8.736;2022-07-23T13:10:57;8.10;;;6.80;;
72117;SDS011;59992;47.490;8.736;2022-07-23T13:13:49;9.70;;;7.60;;
72117;SDS011;59992;47.490;8.736;2022-07-23T13:16:41;9.80;;;7.20;;
72117;SDS011;59992;47.490;8.736;2022-07-23T13:19:32;9.90;;;8.10;;
72117;SDS011;59992;47.490;8.736;2022-07-23T13:22:23;10.40;;;7.70;;
72117;SDS011;59992;47.490;8.736;2022-07-23T13:25:13;10.10;;;7.40;;
72117;SDS011;59992;47.490;8.736;2022-07-23T13:28:04;13.50;;;8.30;;
72117;SDS011;59992;47.490;8.736;2022-07-23T13:30:56;10.00;;;7.40;;
72117;SDS011;59992;47.490;8.736;2022-07-23T13:33:46;9.90;;;7.90;;
72117;SDS011;59992;47.490;8.736;2022-07-23T13:36:37;10.20;;;8.20;;
72117;SDS011;59992;47.490;8.736;2022-07-23T13:39:28;10.20;;;7.10;;
72117;SDS011;59992;47.490;8.736;2022-07-23T13:42:18;10.10;;;7.50;;
72117;SDS011;59992;47.490;8.736;2022-07-23T13:45:09;10.80;;;7.90;;
72117;SDS011;59992;47.490;8.736;2022-07-23T13:48:00;12.00;;;7.70;;
72117;SDS011;59992;47.490;8.736;2022-07-23T13:50:51;10.30;;;7.40;;
72117;SDS011;59992;47.490;8.736;2022-07-23T13:53:42;10.30;;;8.60;;
72117;SDS011;59992;47.490;8.736;2022-07-23T13:56:32;10.20;;;7.20;;
72117;SDS011;59992;47.490;8.736;2022-07-23T13:59:23;10.70;;;7.30;;
72117;SDS011;59992;47.490;8.736;2022-07-23T14:02:14;22.10;;;8.00;;
72117;SDS011;59992;47.490;8.736;2022-07-23T14:05:06;12.50;;;7.60;;
72117;SDS011;59992;47.490;8.736;2022-07-23T14:07:58;8.80;;;7.10;;
72117;SDS011;59992;47.490;8.736;2022-07-23T14:10:50;11.20;;;7.00;;
72117;SDS011;59992;47.490;8.736;2022-07-23T14:13:40;10.70;;;7.40;;
72117;SDS011;59992;47.490;8.736;2022-07-23T14:16:31;8.20;;;7.00;;
72117;SDS011;59992;47.490;8.736;2022-07-23T14:19:22;10.20;;;7.80;;
72117;SDS011;59992;47.490;8.736;2022-07-23T14:22:13;9.30;;;7.00;;
72117;SDS011;59992;47.490;8.736;2022-07-23T14:25:04;9.40;;;7.40;;
72117;SDS011;59992;47.490;8.736;2022-07-23T14:27:56;9.10;;;7.00;;
72117;SDS011;59992;47.490;8.736;2022-07-23T14:30:46;8.20;;;6.50;;
72117;SDS011;59992;47.490;8.736;2022-07-23T14:33:37;15.40;;;7.30;;
72117;SDS011;59992;47.490;8.736;2022-07-23T14:36:27;9.30;;;6.90;;
72117;SDS011;59992;47.490;8.736;2022-07-23T14:39:18;8.50;;;7.00;;
72117;SDS011;59992;47.490;8.736;2022-07-23T14:42:09;9.10;;;6.70;;
72117;SDS011;59992;47.490;8.736;2022-07-23T14:44:59;8.70;;;6.50;;
72117;SDS011;59992;47.490;8.736;2022-07-23T14:47:51;9.50;;;6.80;;
72117;SDS011;59992;47.490;8.736;2022-07-23T14:50:42;9.00;;;6.90;;
72117;SDS011;59992;47.490;8.736;2022-07-23T14:53:33;11.10;;;6.90;;
72117;SDS011;59992;47.490;8.736;2022-07-23T14:56:23;9.00;;;7.00;;
72117;SDS011;59992;47.490;8.736;2022-07-23T14:59:14;8.50;;;7.20;;
72117;SDS011;59992;47.490;8.736;2022-07-23T15:02:04;9.00;;;6.60;;
72117;SDS011;59992;47.490;8.736;2022-07-23T15:04:54;8.70;;;7.40;;
72117;SDS011;59992;47.490;8.736;2022-07-23T15:07:48;9.00;;;7.20;;
72117;SDS011;59992;47.490;8.736;2022-07-23T15:10:39;8.90;;;6.40;;
72117;SDS011;59992;47.490;8.736;2022-07-23T15:13:30;10.50;;;6.90;;
72117;SDS011;59992;47.490;8.736;2022-07-23T15:16:21;8.40;;;7.00;;
72117;SDS011;59992;47.490;8.736;2022-07-23T15:19:11;7.70;;;6.20;;
72117;SDS011;59992;47.490;8.736;2022-07-23T15:22:03;10.20;;;6.80;;
72117;SDS011;59992;47.490;8.736;2022-07-23T15:24:53;11.20;;;6.80;;
72117;SDS011;59992;47.490;8.736;2022-07-23T15:27:44;8.80;;;6.70;;
72117;SDS011;59992;47.490;8.736;2022-07-23T15:30:35;9.80;;;6.80;;
72117;SDS011;59992;47.490;8.736;2022-07-23T15:33:26;9.30;;;6.70;;
72117;SDS011;59992;47.490;8.736;2022-07-23T15:36:18;11.10;;;6.30;;
72117;SDS011;59992;47.490;8.736;2022-07-23T15:39:09;8.40;;;6.90;;
72117;SDS011;59992;47.490;8.736;2022-07-23T15:42:00;10.60;;;6.90;;
72117;SDS011;59992;47.490;8.736;2022-07-23T15:44:51;8.80;;;6.40;;
72117;SDS011;59992;47.490;8.736;2022-07-23T15:47:42;7.90;;;6.50;;
72117;SDS011;59992;47.490;8.736;2022-07-23T15:50:35;8.70;;;6.80;;
72117;SDS011;59992;47.490;8.736;2022-07-23T15:53:25;7.40;;;6.00;;
72117;SDS011;59992;47.490;8.736;2022-07-23T15:56:16;7.00;;;6.10;;
72117;SDS011;59992;47.490;8.736;2022-07-23T15:59:06;7.00;;;6.20;;
72117;SDS011;59992;47.490;8.736;2022-07-23T16:01:57;8.40;;;6.70;;
72117;SDS011;59992;47.490;8.736;2022-07-23T16:04:48;8.60;;;6.60;;
72117;SDS011;59992;47.490;8.736;2022-07-23T16:07:39;12.60;;;7.10;;
72117;SDS011;59992;47.490;8.736;2022-07-23T16:10:30;8.00;;;6.40;;
72117;SDS011;59992;47.490;8.736;2022-07-23T16:13:21;8.10;;;6.50;;
72117;SDS011;59992;47.490;8.736;2022-07-23T16:16:12;9.70;;;6.60;;
72117;SDS011;59992;47.490;8.736;2022-07-23T16:19:03;8.60;;;6.10;;
72117;SDS011;59992;47.490;8.736;2022-07-23T16:21:53;9.30;;;6.60;;
72117;SDS011;59992;47.490;8.736;2022-07-23T16:24:44;8.20;;;6.50;;
72117;SDS011;59992;47.490;8.736;2022-07-23T16:27:35;8.90;;;6.80;;
72117;SDS011;59992;47.490;8.736;2022-07-23T16:30:28;8.50;;;6.90;;
72117;SDS011;59992;47.490;8.736;2022-07-23T16:33:18;8.60;;;7.00;;
72117;SDS011;59992;47.490;8.736;2022-07-23T16:36:09;11.90;;;7.00;;
72117;SDS011;59992;47.490;8.736;2022-07-23T16:39:00;7.70;;;6.10;;
72117;SDS011;59992;47.490;8.736;2022-07-23T16:41:51;9.50;;;7.10;;
72117;SDS011;59992;47.490;8.736;2022-07-23T16:44:41;7.70;;;6.20;;
72117;SDS011;59992;47.490;8.736;2022-07-23T16:47:32;7.90;;;6.50;;
72117;SDS011;59992;47.490;8.736;2022-07-23T16:50:23;9.20;;;6.50;;
72117;SDS011;59992;47.490;8.736;2022-07-23T16:53:14;7.70;;;6.10;;
72117;SDS011;59992;47.490;8.736;2022-07-23T16:56:05;8.40;;;6.50;;
72117;SDS011;59992;47.490;8.736;2022-07-23T16:58:57;10.70;;;6.70;;
72117;SDS011;59992;47.490;8.736;2022-07-23T17:01:49;7.50;;;5.80;;
72117;SDS011;59992;47.490;8.736;2022-07-23T17:04:39;7.80;;;6.30;;
72117;SDS011;59992;47.490;8.736;2022-07-23T17:07:30;8.50;;;6.90;;
72117;SDS011;59992;47.490;8.736;2022-07-23T17:10:21;9.10;;;6.70;;
72117;SDS011;59992;47.490;8.736;2022-07-23T17:13:12;9.00;;;6.90;;
72117;SDS011;59992;47.490;8.736;2022-07-23T17:16:02;10.40;;;7.00;;
72117;SDS011;59992;47.490;8.736;2022-07-23T17:18:53;9.60;;;6.80;;